Ballentine, South Carolina
Current Conditions -  °F | °C
As of 6:56 PM on Saturday 22 Nov 2014 (Local Time) from KCAE Reporting Station
Overcast Overcast  
Wind Chill: 54°   Ceiling: 6000
Heat Index: 54°   Visibility: 10mi
Dew Point: 32°   Wind: 0mph
Humidity: 43%   Direction: NA
Pressure: 30.34"   Gusts: NA
Location:  34.12°N, 81.24°W
Report Text: KCAE 222356Z 00000KT 10SM OVC060 12/00 A3034 RMK AO2 SLP274 T01220000 10172 20122 56006
Loading
Personal Weather Stations






























Interactive Weather Map New forecast layout! Learn more

10-Day Weather Forecast

Advertisements
Track Severe Weather on mobile